sensor_id;sensor_type;location;lat;lon;timestamp;pressure;altitude;pressure_sealevel;temperature;humidity
29461;BME280;16428;47.836;35.106;2023-04-07T00:02:13;101379.75;;;8.50;95.77
29461;BME280;16428;47.836;35.106;2023-04-07T00:04:41;101378.09;;;8.29;94.69
29461;BME280;16428;47.836;35.106;2023-04-07T00:07:09;101379.78;;;8.30;95.24
29461;BME280;16428;47.836;35.106;2023-04-07T00:09:36;101369.34;;;8.27;95.77
29461;BME280;16428;47.836;35.106;2023-04-07T00:12:04;101377.00;;;8.22;96.49
29461;BME280;16428;47.836;35.106;2023-04-07T00:14:31;101369.06;;;8.30;97.15
29461;BME280;16428;47.836;35.106;2023-04-07T00:17:00;101369.25;;;8.19;97.01
29461;BME280;16428;47.836;35.106;2023-04-07T00:19:28;101374.19;;;8.24;97.01
29461;BME280;16428;47.836;35.106;2023-04-07T00:21:56;101373.91;;;8.17;95.71
29461;BME280;16428;47.836;35.106;2023-04-07T00:24:25;101372.50;;;8.23;95.25
29461;BME280;16428;47.836;35.106;2023-04-07T00:27:01;101376.88;;;8.14;99.92
29461;BME280;16428;47.836;35.106;2023-04-07T00:29:28;101377.72;;;8.15;98.22
29461;BME280;16428;47.836;35.106;2023-04-07T00:31:56;101379.25;;;8.17;97.35
29461;BME280;16428;47.836;35.106;2023-04-07T00:34:23;101379.25;;;8.17;98.42
29461;BME280;16428;47.836;35.106;2023-04-07T00:36:50;101382.13;;;7.87;99.66
29461;BME280;16428;47.836;35.106;2023-04-07T00:39:19;101380.03;;;7.81;100.00
29461;BME280;16428;47.836;35.106;2023-04-07T00:41:47;101382.69;;;7.81;100.00
29461;BME280;16428;47.836;35.106;2023-04-07T00:44:14;101385.38;;;7.81;100.00
29461;BME280;16428;47.836;35.106;2023-04-07T00:46:42;101389.88;;;7.90;100.00
29461;BME280;16428;47.836;35.106;2023-04-07T00:49:10;101383.13;;;7.86;99.59
29461;BME280;16428;47.836;35.106;2023-04-07T00:51:40;101378.19;;;7.81;100.00
29461;BME280;16428;47.836;35.106;2023-04-07T00:54:08;101380.59;;;7.94;100.00
29461;BME280;16428;47.836;35.106;2023-04-07T00:56:37;101379.59;;;7.85;100.00
29461;BME280;16428;47.836;35.106;2023-04-07T00:59:05;101381.00;;;7.89;100.00
29461;BME280;16428;47.836;35.106;2023-04-07T01:01:43;101376.50;;;7.90;100.00
29461;BME280;16428;47.836;35.106;2023-04-07T01:04:26;101378.19;;;7.91;100.00
29461;BME280;16428;47.836;35.106;2023-04-07T01:07:03;101379.56;;;7.95;100.00
29461;BME280;16428;47.836;35.106;2023-04-07T01:09:54;101375.81;;;7.88;100.00
29461;BME280;16428;47.836;35.106;2023-04-07T01:12:34;101373.41;;;7.85;100.00
29461;BME280;16428;47.836;35.106;2023-04-07T01:15:11;101376.50;;;7.80;100.00
29461;BME280;16428;47.836;35.106;2023-04-07T01:17:44;101370.72;;;7.85;100.00
29461;BME280;16428;47.836;35.106;2023-04-07T01:20:15;101381.84;;;7.90;100.00
29461;BME280;16428;47.836;35.106;2023-04-07T01:22:52;101369.19;;;7.92;99.23
29461;BME280;16428;47.836;35.106;2023-04-07T01:30:59;101371.84;;;7.92;99.43
29461;BME280;16428;47.836;35.106;2023-04-07T01:33:30;101378.19;;;7.91;97.32
29461;BME280;16428;47.836;35.106;2023-04-07T01:35:59;101372.97;;;7.80;96.99
29461;BME280;16428;47.836;35.106;2023-04-07T01:38:28;101371.31;;;7.79;96.71
29461;BME280;16428;47.836;35.106;2023-04-07T01:40:57;101369.47;;;7.89;96.73
29461;BME280;16428;47.836;35.106;2023-04-07T01:43:26;101363.84;;;7.92;96.77
29461;BME280;16428;47.836;35.106;2023-04-07T01:45:56;101367.06;;;7.86;95.96
29461;BME280;16428;47.836;35.106;2023-04-07T01:48:25;101364.09;;;7.98;95.52
29461;BME280;16428;47.836;35.106;2023-04-07T01:50:54;101364.09;;;8.08;95.18
29461;BME280;16428;47.836;35.106;2023-04-07T01:53:24;101360.09;;;8.12;96.17
29461;BME280;16428;47.836;35.106;2023-04-07T01:55:53;101368.31;;;8.01;95.75
29461;BME280;16428;47.836;35.106;2023-04-07T01:58:23;101364.09;;;8.08;96.10
29461;BME280;16428;47.836;35.106;2023-04-07T02:00:52;101365.22;;;8.05;95.04
29461;BME280;16428;47.836;35.106;2023-04-07T02:03:30;101363.25;;;7.98;96.31
29461;BME280;16428;47.836;35.106;2023-04-07T02:06:04;101359.47;;;7.91;96.62
29461;BME280;16428;47.836;35.106;2023-04-07T02:08:41;101361.56;;;7.97;96.27
29461;BME280;16428;47.836;35.106;2023-04-07T02:11:11;101352.25;;;8.01;96.46
29461;BME280;16428;47.836;35.106;2023-04-07T02:13:41;101360.69;;;8.06;96.39
29461;BME280;16428;47.836;35.106;2023-04-07T02:16:10;101357.31;;;8.04;95.22
29461;BME280;16428;47.836;35.106;2023-04-07T02:18:40;101349.72;;;8.09;96.03
29461;BME280;16428;47.836;35.106;2023-04-07T02:21:10;101361.53;;;8.06;95.44
29461;BME280;16428;47.836;35.106;2023-04-07T02:23:39;101353.38;;;8.08;96.57
29461;BME280;16428;47.836;35.106;2023-04-07T02:26:06;101351.78;;;8.15;97.18
29461;BME280;16428;47.836;35.106;2023-04-07T02:28:34;101355.59;;;8.22;95.55
29461;BME280;16428;47.836;35.106;2023-04-07T02:31:01;101347.56;;;8.22;96.04
29461;BME280;16428;47.836;35.106;2023-04-07T02:33:30;101353.00;;;8.30;94.58
29461;BME280;16428;47.836;35.106;2023-04-07T02:35:57;101351.06;;;8.32;94.99
29461;BME280;16428;47.836;35.106;2023-04-07T02:38:25;101348.38;;;8.32;96.27
29461;BME280;16428;47.836;35.106;2023-04-07T02:40:52;101347.31;;;8.53;95.65
29461;BME280;16428;47.836;35.106;2023-04-07T02:43:23;101353.16;;;8.38;96.01
29461;BME280;16428;47.836;35.106;2023-04-07T02:45:51;101351.31;;;8.29;96.45
29461;BME280;16428;47.836;35.106;2023-04-07T02:48:20;101348.25;;;8.24;96.16
29461;BME280;16428;47.836;35.106;2023-04-07T02:50:47;101354.19;;;8.18;95.15
29461;BME280;16428;47.836;35.106;2023-04-07T02:53:18;101356.41;;;8.32;94.96
29461;BME280;16428;47.836;35.106;2023-04-07T02:55:45;101354.38;;;8.44;95.06
29461;BME280;16428;47.836;35.106;2023-04-07T02:58:13;101363.56;;;8.41;95.80
29461;BME280;16428;47.836;35.106;2023-04-07T03:00:42;101372.13;;;8.55;94.70
29461;BME280;16428;47.836;35.106;2023-04-07T03:03:09;101365.38;;;8.51;95.25
29461;BME280;16428;47.836;35.106;2023-04-07T03:05:38;101373.78;;;8.56;94.57
29461;BME280;16428;47.836;35.106;2023-04-07T03:08:05;101373.19;;;8.62;94.88
29461;BME280;16428;47.836;35.106;2023-04-07T03:10:33;101368.41;;;8.56;95.87
29461;BME280;16428;47.836;35.106;2023-04-07T03:13:01;101374.63;;;8.56;95.77
29461;BME280;16428;47.836;35.106;2023-04-07T03:15:28;101369.19;;;8.48;95.60
29461;BME280;16428;47.836;35.106;2023-04-07T03:17:57;101377.91;;;8.50;95.59
29461;BME280;16428;47.836;35.106;2023-04-07T03:20:25;101370.44;;;8.54;97.00
29461;BME280;16428;47.836;35.106;2023-04-07T03:22:58;101375.94;;;8.52;96.42
29461;BME280;16428;47.836;35.106;2023-04-07T03:25:26;101380.31;;;8.43;96.83
29461;BME280;16428;47.836;35.106;2023-04-07T03:27:54;101375.38;;;8.49;96.78
29461;BME280;16428;47.836;35.106;2023-04-07T03:30:21;101371.50;;;8.61;94.65
29461;BME280;16428;47.836;35.106;2023-04-07T03:32:49;101382.56;;;8.48;94.89
29461;BME280;16428;47.836;35.106;2023-04-07T03:35:16;101376.94;;;8.41;96.51
29461;BME280;16428;47.836;35.106;2023-04-07T03:37:44;101372.56;;;8.40;95.49
29461;BME280;16428;47.836;35.106;2023-04-07T03:40:12;101384.25;;;8.49;95.65
29461;BME280;16428;47.836;35.106;2023-04-07T03:42:42;101377.53;;;8.35;97.09
29461;BME280;16428;47.836;35.106;2023-04-07T03:45:09;101376.56;;;8.36;97.53
29461;BME280;16428;47.836;35.106;2023-04-07T03:47:37;101382.38;;;8.59;97.46
29461;BME280;16428;47.836;35.106;2023-04-07T03:50:06;101384.25;;;8.49;96.42
29461;BME280;16428;47.836;35.106;2023-04-07T03:52:33;101382.97;;;8.53;94.84
29461;BME280;16428;47.836;35.106;2023-04-07T03:55:01;101382.38;;;8.59;94.12
29461;BME280;16428;47.836;35.106;2023-04-07T03:57:28;101387.91;;;8.48;96.14
29461;BME280;16428;47.836;35.106;2023-04-07T03:59:57;101384.09;;;8.51;96.12
29461;BME280;16428;47.836;35.106;2023-04-07T04:02:25;101381.53;;;8.59;96.44
29461;BME280;16428;47.836;35.106;2023-04-07T04:04:52;101379.88;;;8.48;95.74
29461;BME280;16428;47.836;35.106;2023-04-07T04:07:21;101383.69;;;8.55;96.47
29461;BME280;16428;47.836;35.106;2023-04-07T04:09:49;101387.91;;;8.48;96.42
29461;BME280;16428;47.836;35.106;2023-04-07T04:12:17;101385.88;;;8.60;96.63
29461;BME280;16428;47.836;35.106;2023-04-07T04:14:44;101381.88;;;8.46;98.33
29461;BME280;16428;47.836;35.106;2023-04-07T04:17:12;101387.78;;;8.77;96.46
29461;BME280;16428;47.836;35.106;2023-04-07T04:19:39;101391.84;;;8.54;97.91
29461;BME280;16428;47.836;35.106;2023-04-07T04:22:06;101391.38;;;8.68;98.01
29461;BME280;16428;47.836;35.106;2023-04-07T04:24:35;101402.78;;;8.70;97.87
29461;BME280;16428;47.836;35.106;2023-04-07T04:27:02;101404.25;;;8.82;97.71
29461;BME280;16428;47.836;35.106;2023-04-07T04:29:30;101399.28;;;8.87;96.84
29461;BME280;16428;47.836;35.106;2023-04-07T04:31:59;101403.66;;;8.61;97.66
29461;BME280;16428;47.836;35.106;2023-04-07T04:34:35;101401.09;;;8.69;98.03
29461;BME280;16428;47.836;35.106;2023-04-07T04:37:03;101408.94;;;8.80;97.40
29461;BME280;16428;47.836;35.106;2023-04-07T04:39:30;101409.50;;;8.74;96.55
29461;BME280;16428;47.836;35.106;2023-04-07T04:42:00;101411.19;;;8.75;97.37
29461;BME280;16428;47.836;35.106;2023-04-07T04:44:30;101401.88;;;8.79;97.17
29461;BME280;16428;47.836;35.106;2023-04-07T04:47:03;101410.84;;;8.88;95.36
29461;BME280;16428;47.836;35.106;2023-04-07T04:49:31;101403.75;;;8.96;96.64
29461;BME280;16428;47.836;35.106;2023-04-07T04:51:59;101406.16;;;8.99;96.12
29461;BME280;16428;47.836;35.106;2023-04-07T04:54:29;101404.25;;;9.09;95.83
29461;BME280;16428;47.836;35.106;2023-04-07T04:56:56;101403.16;;;9.02;94.91
29461;BME280;16428;47.836;35.106;2023-04-07T04:59:24;101412.38;;;9.17;94.77
29461;BME280;16428;47.836;35.106;2023-04-07T05:01:53;101411.50;;;9.17;95.26
29461;BME280;16428;47.836;35.106;2023-04-07T05:04:20;101409.06;;;9.06;95.02
29461;BME280;16428;47.836;35.106;2023-04-07T05:06:48;101412.06;;;9.21;94.80
29461;BME280;16428;47.836;35.106;2023-04-07T05:09:18;101412.88;;;9.03;96.35
29461;BME280;16428;47.836;35.106;2023-04-07T05:11:46;101406.09;;;9.09;96.26
29461;BME280;16428;47.836;35.106;2023-04-07T05:14:14;101410.31;;;9.11;96.23
29461;BME280;16428;47.836;35.106;2023-04-07T05:16:46;101412.69;;;9.14;95.01
29461;BME280;16428;47.836;35.106;2023-04-07T05:19:13;101417.53;;;9.01;95.67
29461;BME280;16428;47.836;35.106;2023-04-07T05:21:41;101425.75;;;9.17;95.96
29461;BME280;16428;47.836;35.106;2023-04-07T05:24:12;101430.91;;;9.11;95.04
29461;BME280;16428;47.836;35.106;2023-04-07T05:26:40;101421.50;;;9.25;94.76
29461;BME280;16428;47.836;35.106;2023-04-07T05:29:08;101416.84;;;9.27;93.69
29461;BME280;16428;47.836;35.106;2023-04-07T05:31:36;101417.44;;;9.21;94.80
29461;BME280;16428;47.836;35.106;2023-04-07T05:34:03;101418.88;;;9.33;94.82
29461;BME280;16428;47.836;35.106;2023-04-07T05:36:32;101426.63;;;9.36;94.14
29461;BME280;16428;47.836;35.106;2023-04-07T05:39:00;101418.88;;;9.33;94.19
29461;BME280;16428;47.836;35.106;2023-04-07T05:41:28;101420.97;;;9.39;94.11
29461;BME280;16428;47.836;35.106;2023-04-07T05:43:59;101419.44;;;9.36;94.34
29461;BME280;16428;47.836;35.106;2023-04-07T05:46:27;101421.53;;;9.42;93.15
29461;BME280;16428;47.836;35.106;2023-04-07T05:48:55;101420.38;;;9.45;93.72
29461;BME280;16428;47.836;35.106;2023-04-07T05:51:26;101416.03;;;9.62;93.54
29461;BME280;16428;47.836;35.106;2023-04-07T05:53:54;101421.44;;;9.52;93.26
29461;BME280;16428;47.836;35.106;2023-04-07T05:56:22;101422.22;;;9.62;93.27
29461;BME280;16428;47.836;35.106;2023-04-07T05:58:50;101415.63;;;9.57;92.48
29461;BME280;16428;47.836;35.106;2023-04-07T06:01:20;101430.34;;;9.70;91.84
29461;BME280;16428;47.836;35.106;2023-04-07T06:03:47;101426.06;;;9.60;93.34
29461;BME280;16428;47.836;35.106;2023-04-07T06:06:15;101430.09;;;9.64;93.34
29461;BME280;16428;47.836;35.106;2023-04-07T06:08:43;101425.13;;;9.69;93.12
29461;BME280;16428;47.836;35.106;2023-04-07T06:11:12;101430.09;;;9.81;93.03
29461;BME280;16428;47.836;35.106;2023-04-07T06:13:40;101431.34;;;9.69;92.85
29461;BME280;16428;47.836;35.106;2023-04-07T06:16:08;101427.41;;;9.81;92.58
29461;BME280;16428;47.836;35.106;2023-04-07T06:18:39;101426.66;;;9.89;92.68
29461;BME280;16428;47.836;35.106;2023-04-07T06:21:07;101433.56;;;9.92;92.07
29461;BME280;16428;47.836;35.106;2023-04-07T06:23:36;101433.38;;;9.93;93.05
29461;BME280;16428;47.836;35.106;2023-04-07T06:26:03;101436.16;;;9.83;92.65
29461;BME280;16428;47.836;35.106;2023-04-07T06:28:31;101429.22;;;9.99;92.82
29461;BME280;16428;47.836;35.106;2023-04-07T06:30:58;101432.47;;;10.20;92.52
29461;BME280;16428;47.836;35.106;2023-04-07T06:33:27;101439.56;;;10.29;92.04
29461;BME280;16428;47.836;35.106;2023-04-07T06:35:55;101446.22;;;10.25;90.27
29461;BME280;16428;47.836;35.106;2023-04-07T06:38:23;101440.38;;;10.21;90.70
29461;BME280;16428;47.836;35.106;2023-04-07T06:40:50;101441.72;;;10.26;92.19
29461;BME280;16428;47.836;35.106;2023-04-07T06:43:22;101453.00;;;10.29;91.60
29461;BME280;16428;47.836;35.106;2023-04-07T06:45:50;101456.09;;;10.42;90.62
29461;BME280;16428;47.836;35.106;2023-04-07T06:48:17;101453.38;;;10.16;90.41
29461;BME280;16428;47.836;35.106;2023-04-07T06:50:51;101452.84;;;10.31;89.86
29461;BME280;16428;47.836;35.106;2023-04-07T06:53:19;101460.28;;;10.37;89.32
29461;BME280;16428;47.836;35.106;2023-04-07T06:55:47;101455.31;;;10.06;91.28
29461;BME280;16428;47.836;35.106;2023-04-07T06:58:15;101460.34;;;10.27;91.12
29461;BME280;16428;47.836;35.106;2023-04-07T07:00:42;101452.09;;;10.03;92.75
29461;BME280;16428;47.836;35.106;2023-04-07T07:03:10;101456.50;;;10.12;92.80
29461;BME280;16428;47.836;35.106;2023-04-07T07:05:38;101458.19;;;10.13;92.42
29461;BME280;16428;47.836;35.106;2023-04-07T07:08:06;101457.13;;;10.23;92.71
29461;BME280;16428;47.836;35.106;2023-04-07T07:10:33;101458.44;;;10.37;91.36
29461;BME280;16428;47.836;35.106;2023-04-07T07:13:01;101458.34;;;10.29;92.54
29461;BME280;16428;47.836;35.106;2023-04-07T07:15:30;101463.00;;;10.45;91.86
29461;BME280;16428;47.836;35.106;2023-04-07T07:17:57;101452.69;;;10.32;92.12
29461;BME280;16428;47.836;35.106;2023-04-07T07:20:25;101459.19;;;10.30;91.06
29461;BME280;16428;47.836;35.106;2023-04-07T07:22:52;101466.03;;;10.24;91.34
29461;BME280;16428;47.836;35.106;2023-04-07T07:25:20;101459.44;;;10.36;91.57
29461;BME280;16428;47.836;35.106;2023-04-07T07:27:47;101463.19;;;10.26;91.85
29461;BME280;16428;47.836;35.106;2023-04-07T07:30:23;101460.31;;;10.19;93.06
29461;BME280;16428;47.836;35.106;2023-04-07T07:32:54;101458.19;;;10.13;93.60
29461;BME280;16428;47.836;35.106;2023-04-07T07:35:22;101462.28;;;9.99;93.31
29461;BME280;16428;47.836;35.106;2023-04-07T07:37:53;101452.13;;;10.29;93.46
29461;BME280;16428;47.836;35.106;2023-04-07T07:40:20;101452.38;;;10.35;93.95
29461;BME280;16428;47.836;35.106;2023-04-07T07:42:49;101454.06;;;10.36;94.01
29461;BME280;16428;47.836;35.106;2023-04-07T07:45:17;101455.47;;;10.48;93.40
29461;BME280;16428;47.836;35.106;2023-04-07T07:47:56;101452.78;;;10.48;93.55
29461;BME280;16428;47.836;35.106;2023-04-07T07:50:23;101449.31;;;10.30;91.26
29461;BME280;16428;47.836;35.106;2023-04-07T07:52:51;101451.69;;;10.33;93.39
29461;BME280;16428;47.836;35.106;2023-04-07T07:55:21;101451.88;;;10.40;93.22
29461;BME280;16428;47.836;35.106;2023-04-07T07:57:49;101454.72;;;10.64;91.72
29461;BME280;16428;47.836;35.106;2023-04-07T08:00:16;101457.50;;;10.54;91.34
29461;BME280;16428;47.836;35.106;2023-04-07T08:02:58;101454.78;;;10.46;91.93
29461;BME280;16428;47.836;35.106;2023-04-07T08:05:27;101455.47;;;10.48;90.46
29461;BME280;16428;47.836;35.106;2023-04-07T08:07:54;101456.16;;;10.50;90.89
29461;BME280;16428;47.836;35.106;2023-04-07T08:10:22;101462.06;;;10.54;91.76
29461;BME280;16428;47.836;35.106;2023-04-07T08:12:57;101452.94;;;10.47;91.25
29461;BME280;16428;47.836;35.106;2023-04-07T08:15:24;101453.63;;;10.49;93.16
29461;BME280;16428;47.836;35.106;2023-04-07T08:17:52;101449.53;;;10.71;91.69
29461;BME280;16428;47.836;35.106;2023-04-07T08:20:26;101450.03;;;10.66;92.05
29461;BME280;16428;47.836;35.106;2023-04-07T08:22:54;101451.91;;;10.74;92.52
29461;BME280;16428;47.836;35.106;2023-04-07T08:25:24;101454.25;;;10.69;93.10
29461;BME280;16428;47.836;35.106;2023-04-07T08:27:55;101446.41;;;10.49;93.27
29461;BME280;16428;47.836;35.106;2023-04-07T08:30:23;101442.66;;;10.68;93.52
29461;BME280;16428;47.836;35.106;2023-04-07T08:33:07;101450.72;;;10.68;93.94
29461;BME280;16428;47.836;35.106;2023-04-07T08:35:35;101447.84;;;10.70;93.73
29461;BME280;16428;47.836;35.106;2023-04-07T08:38:02;101446.50;;;10.66;93.73
29461;BME280;16428;47.836;35.106;2023-04-07T08:40:31;101444.50;;;10.68;94.24
29461;BME280;16428;47.836;35.106;2023-04-07T08:43:00;101447.44;;;10.56;95.93
29461;BME280;16428;47.836;35.106;2023-04-07T08:45:31;101453.22;;;10.70;96.18
29461;BME280;16428;47.836;35.106;2023-04-07T08:48:03;101453.91;;;10.72;96.43
29461;BME280;16428;47.836;35.106;2023-04-07T08:50:34;101450.88;;;10.67;98.21
29461;BME280;16428;47.836;35.106;2023-04-07T08:53:04;101456.56;;;10.64;97.24
29461;BME280;16428;47.836;35.106;2023-04-07T08:55:35;101450.22;;;10.73;97.13
29461;BME280;16428;47.836;35.106;2023-04-07T08:58:03;101452.44;;;10.77;97.39
29461;BME280;16428;47.836;35.106;2023-04-07T09:00:31;101458.97;;;10.75;98.22
29461;BME280;16428;47.836;35.106;2023-04-07T09:03:20;101461.28;;;10.70;98.31
29461;BME280;16428;47.836;35.106;2023-04-07T09:05:50;101467.72;;;10.77;98.35
29461;BME280;16428;47.836;35.106;2023-04-07T09:08:17;101462.97;;;10.71;99.41
29461;BME280;16428;47.836;35.106;2023-04-07T09:10:45;101463.16;;;10.69;99.88
29461;BME280;16428;47.836;35.106;2023-04-07T09:13:13;101456.25;;;10.41;99.84
29461;BME280;16428;47.836;35.106;2023-04-07T09:15:40;101450.47;;;10.53;100.00
29461;BME280;16428;47.836;35.106;2023-04-07T09:18:08;101450.94;;;10.49;100.00
29461;BME280;16428;47.836;35.106;2023-04-07T09:21:09;101451.88;;;10.66;100.00
29461;BME280;16428;47.836;35.106;2023-04-07T09:23:39;101450.97;;;10.57;100.00
29461;BME280;16428;47.836;35.106;2023-04-07T09:26:27;101454.56;;;10.66;100.00
29461;BME280;16428;47.836;35.106;2023-04-07T09:28:59;101450.22;;;10.73;100.00
29461;BME280;16428;47.836;35.106;2023-04-07T09:36:53;101437.75;;;10.64;100.00
29461;BME280;16428;47.836;35.106;2023-04-07T09:39:21;101439.84;;;10.78;100.00
29461;BME280;16428;47.836;35.106;2023-04-07T09:41:49;101437.88;;;10.88;100.00
29461;BME280;16428;47.836;35.106;2023-04-07T09:44:21;101447.47;;;10.90;100.00
29461;BME280;16428;47.836;35.106;2023-04-07T09:46:53;101446.31;;;10.93;100.00
29461;BME280;16428;47.836;35.106;2023-04-07T09:49:25;101451.91;;;10.74;100.00
29461;BME280;16428;47.836;35.106;2023-04-07T09:52:01;101447.13;;;10.60;100.00
29461;BME280;16428;47.836;35.106;2023-04-07T09:54:39;101445.59;;;10.83;100.00
29461;BME280;16428;47.836;35.106;2023-04-07T09:57:10;101450.47;;;10.53;100.00
29461;BME280;16428;47.836;35.106;2023-04-07T09:59:40;101442.31;;;10.71;100.00
29461;BME280;16428;47.836;35.106;2023-04-07T10:02:09;101441.81;;;10.68;100.00
29461;BME280;16428;47.836;35.106;2023-04-07T10:04:38;101448.75;;;10.78;100.00
29461;BME280;16428;47.836;35.106;2023-04-07T10:07:07;101438.31;;;10.75;100.00
29461;BME280;16428;47.836;35.106;2023-04-07T10:09:35;101441.53;;;10.79;100.00
29461;BME280;16428;47.836;35.106;2023-04-07T10:12:03;101446.91;;;10.79;100.00
29461;BME280;16428;47.836;35.106;2023-04-07T10:14:32;101448.69;;;10.96;100.00
29461;BME280;16428;47.836;35.106;2023-04-07T10:17:02;101445.31;;;11.02;100.00
29461;BME280;16428;47.836;35.106;2023-04-07T10:19:31;101453.06;;;11.05;100.00
29461;BME280;16428;47.836;35.106;2023-04-07T10:22:04;101443.06;;;11.23;100.00
29461;BME280;16428;47.836;35.106;2023-04-07T10:27:21;101444.41;;;11.27;100.00
29461;BME280;16428;47.836;35.106;2023-04-07T10:29:51;101444.09;;;11.47;100.00
29461;BME280;16428;47.836;35.106;2023-04-07T10:32:19;101442.28;;;11.63;100.00
29461;BME280;16428;47.836;35.106;2023-04-07T10:37:17;101445.72;;;11.90;100.00
29461;BME280;16428;47.836;35.106;2023-04-07T10:39:49;101448.59;;;12.05;100.00
29461;BME280;16428;47.836;35.106;2023-04-07T10:45:08;101454.47;;;12.08;98.55
29461;BME280;16428;47.836;35.106;2023-04-07T10:50:27;101459.19;;;12.14;97.97
29461;BME280;16428;47.836;35.106;2023-04-07T10:55:39;101453.44;;;12.25;97.20
29461;BME280;16428;47.836;35.106;2023-04-07T10:58:28;101458.53;;;12.04;98.50
29461;BME280;16428;47.836;35.106;2023-04-07T11:03:31;101446.75;;;12.21;99.02
29461;BME280;16428;47.836;35.106;2023-04-07T11:06:07;101441.16;;;12.23;99.40
29461;BME280;16428;47.836;35.106;2023-04-07T11:11:12;101436.78;;;12.30;99.00
29461;BME280;16428;47.836;35.106;2023-04-07T11:13:57;101432.75;;;12.26;99.31
29461;BME280;16428;47.836;35.106;2023-04-07T11:16:41;101432.22;;;12.47;98.59
29461;BME280;16428;47.836;35.106;2023-04-07T11:19:10;101425.31;;;12.44;100.00
29461;BME280;16428;47.836;35.106;2023-04-07T11:21:38;101430.03;;;12.42;99.24
29461;BME280;16428;47.836;35.106;2023-04-07T11:24:06;101427.63;;;12.55;99.66
29461;BME280;16428;47.836;35.106;2023-04-07T11:26:40;101418.75;;;12.39;100.00
29461;BME280;16428;47.836;35.106;2023-04-07T11:29:08;101414.38;;;12.29;100.00
29461;BME280;16428;47.836;35.106;2023-04-07T11:31:38;101411.53;;;12.23;100.00
29461;BME280;16428;47.836;35.106;2023-04-07T11:34:06;101417.75;;;12.31;100.00
29461;BME280;16428;47.836;35.106;2023-04-07T11:36:40;101411.56;;;12.15;100.00
29461;BME280;16428;47.836;35.106;2023-04-07T11:39:19;101409.63;;;12.40;100.00
29461;BME280;16428;47.836;35.106;2023-04-07T11:41:49;101410.19;;;12.35;100.00
29461;BME280;16428;47.836;35.106;2023-04-07T11:44:18;101400.22;;;12.44;100.00
29461;BME280;16428;47.836;35.106;2023-04-07T11:46:56;101398.69;;;12.49;100.00
29461;BME280;16428;47.836;35.106;2023-04-07T11:49:26;101392.97;;;12.52;100.00
29461;BME280;16428;47.836;35.106;2023-04-07T11:52:05;101403.38;;;12.55;100.00
29461;BME280;16428;47.836;35.106;2023-04-07T11:54:43;101399.38;;;12.43;100.00
29461;BME280;16428;47.836;35.106;2023-04-07T11:57:26;101393.13;;;12.43;100.00
29461;BME280;16428;47.836;35.106;2023-04-07T12:00:24;101394.97;;;12.50;100.00
29461;BME280;16428;47.836;35.106;2023-04-07T12:02:52;101392.81;;;12.46;100.00
29461;BME280;16428;47.836;35.106;2023-04-07T12:05:20;101396.47;;;12.61;100.00
29461;BME280;16428;47.836;35.106;2023-04-07T12:07:53;101396.47;;;12.61;100.00
29461;BME280;16428;47.836;35.106;2023-04-07T12:10:23;101392.63;;;12.39;100.00
29461;BME280;16428;47.836;35.106;2023-04-07T12:13:03;101392.41;;;12.65;100.00
29461;BME280;16428;47.836;35.106;2023-04-07T12:15:30;101391.56;;;12.64;100.00
29461;BME280;16428;47.836;35.106;2023-04-07T12:17:58;101391.22;;;12.67;100.00
29461;BME280;16428;47.836;35.106;2023-04-07T12:20:26;101393.72;;;12.69;100.00
29461;BME280;16428;47.836;35.106;2023-04-07T12:25:35;101377.00;;;12.26;100.00
29461;BME280;16428;47.836;35.106;2023-04-07T12:28:09;101375.44;;;12.48;100.00
29461;BME280;16428;47.836;35.106;2023-04-07T12:30:37;101372.03;;;12.62;100.00
29461;BME280;16428;47.836;35.106;2023-04-07T12:33:05;101372.31;;;12.76;100.00
29461;BME280;16428;47.836;35.106;2023-04-07T12:35:33;101375.88;;;13.07;100.00
29461;BME280;16428;47.836;35.106;2023-04-07T12:38:01;101367.75;;;13.15;100.00
29461;BME280;16428;47.836;35.106;2023-04-07T12:40:32;101364.44;;;13.59;100.00
29461;BME280;16428;47.836;35.106;2023-04-07T12:43:01;101358.00;;;13.97;100.00
29461;BME280;16428;47.836;35.106;2023-04-07T12:45:30;101355.25;;;14.20;100.00
29461;BME280;16428;47.836;35.106;2023-04-07T12:47:58;101359.91;;;14.70;100.00
29461;BME280;16428;47.836;35.106;2023-04-07T12:50:26;101362.53;;;14.78;100.00
29461;BME280;16428;47.836;35.106;2023-04-07T12:52:54;101361.09;;;14.83;100.00
29461;BME280;16428;47.836;35.106;2023-04-07T12:55:22;101360.88;;;14.99;100.00
29461;BME280;16428;47.836;35.106;2023-04-07T12:57:49;101369.28;;;15.61;99.77
29461;BME280;16428;47.836;35.106;2023-04-07T13:00:17;101364.97;;;15.88;97.81
29461;BME280;16428;47.836;35.106;2023-04-07T13:03:05;101361.72;;;15.99;95.63
29461;BME280;16428;47.836;35.106;2023-04-07T13:05:33;101367.53;;;14.96;97.50
29461;BME280;16428;47.836;35.106;2023-04-07T13:08:03;101368.94;;;15.28;97.37
29461;BME280;16428;47.836;35.106;2023-04-07T13:10:31;101368.44;;;15.03;100.00
29461;BME280;16428;47.836;35.106;2023-04-07T13:13:03;101368.09;;;15.28;100.00
29461;BME280;16428;47.836;35.106;2023-04-07T13:15:31;101365.72;;;15.39;100.00
29461;BME280;16428;47.836;35.106;2023-04-07T13:17:59;101361.50;;;14.80;100.00
29461;BME280;16428;47.836;35.106;2023-04-07T13:20:31;101370.28;;;15.18;100.00
29461;BME280;16428;47.836;35.106;2023-04-07T13:22:59;101358.50;;;15.25;100.00
29461;BME280;16428;47.836;35.106;2023-04-07T13:25:36;101369.00;;;14.99;100.00
29461;BME280;16428;47.836;35.106;2023-04-07T13:28:04;101355.53;;;15.20;100.00
29461;BME280;16428;47.836;35.106;2023-04-07T13:30:33;101356.38;;;14.55;100.00